createdAt,value
2023-01-29T00:00:37.677Z,14.35
2023-01-29T00:03:05.680Z,14.65
2023-01-29T00:05:32.947Z,15.57
2023-01-29T00:08:00.262Z,15.43
2023-01-29T00:10:27.527Z,15.23
2023-01-29T00:12:54.980Z,15.50
2023-01-29T00:15:22.239Z,15.25
2023-01-29T00:17:49.530Z,13.95
2023-01-29T00:20:17.411Z,14.25
2023-01-29T00:22:44.901Z,14.35
2023-01-29T00:25:12.274Z,14.43
2023-01-29T00:27:39.522Z,15.05
2023-01-29T00:30:12.150Z,15.48
2023-01-29T00:32:39.413Z,15.25
2023-01-29T00:35:06.669Z,14.10
2023-01-29T00:37:33.957Z,15.15
2023-01-29T00:40:01.121Z,15.13
2023-01-29T00:42:47.312Z,16.30
2023-01-29T00:45:14.546Z,15.40
2023-01-29T00:47:41.759Z,16.60
2023-01-29T00:50:09.050Z,15.68
2023-01-29T00:52:41.030Z,16.90
2023-01-29T00:55:08.314Z,16.23
2023-01-29T00:57:35.492Z,17.85
2023-01-29T01:00:03.557Z,17.13
2023-01-29T01:02:50.017Z,17.20
2023-01-29T01:05:20.402Z,17.95
2023-01-29T01:07:47.782Z,16.10
2023-01-29T01:10:21.375Z,17.48
2023-01-29T01:12:48.648Z,18.63
2023-01-29T01:15:16.013Z,17.70
2023-01-29T01:17:43.321Z,17.48
2023-01-29T01:20:10.885Z,18.65
2023-01-29T01:22:38.143Z,18.95
2023-01-29T01:25:05.382Z,18.67
2023-01-29T01:27:32.676Z,18.63
2023-01-29T01:29:59.849Z,18.05
2023-01-29T01:32:27.157Z,17.85
2023-01-29T01:34:54.384Z,18.25
2023-01-29T01:37:22.130Z,19.42
2023-01-29T01:39:50.633Z,19.58
2023-01-29T01:42:17.931Z,19.02
2023-01-29T01:44:45.147Z,18.65
2023-01-29T01:47:12.402Z,17.23
2023-01-29T01:49:40.459Z,18.50
2023-01-29T01:52:07.720Z,18.50
2023-01-29T01:54:34.921Z,18.90
2023-01-29T01:57:09.273Z,18.88
2023-01-29T01:59:36.546Z,19.23
2023-01-29T02:02:22.740Z,18.73
2023-01-29T02:05:09.071Z,18.98
2023-01-29T02:07:55.393Z,18.45
2023-01-29T02:10:23.228Z,18.75
2023-01-29T02:12:52.148Z,18.80
2023-01-29T02:15:19.621Z,17.52
2023-01-29T02:17:48.516Z,18.00
2023-01-29T02:20:16.027Z,19.25
2023-01-29T02:22:43.388Z,19.10
2023-01-29T02:25:10.687Z,17.05
2023-01-29T02:27:37.856Z,18.38
2023-01-29T02:30:05.144Z,16.98
2023-01-29T02:32:32.531Z,16.70
2023-01-29T02:35:18.621Z,18.17
2023-01-29T02:37:46.309Z,17.63
2023-01-29T02:40:13.666Z,19.42
2023-01-29T02:42:40.942Z,16.52
2023-01-29T02:45:08.132Z,17.70
2023-01-29T02:47:35.933Z,18.38
2023-01-29T02:50:03.305Z,18.33
2023-01-29T02:52:30.614Z,18.48
2023-01-29T02:54:59.881Z,17.77
2023-01-29T02:57:30.720Z,18.17
2023-01-29T02:59:57.939Z,18.63
2023-01-29T03:02:25.400Z,17.15
2023-01-29T03:04:53.237Z,17.88
2023-01-29T03:07:40.674Z,17.20
2023-01-29T03:10:09.325Z,17.92
2023-01-29T03:12:36.493Z,18.95
2023-01-29T03:15:11.675Z,17.48
2023-01-29T03:17:40.156Z,17.55
2023-01-29T03:20:08.053Z,17.92
2023-01-29T03:22:35.450Z,18.85
2023-01-29T03:25:21.448Z,18.05
2023-01-29T03:28:07.922Z,20.67
2023-01-29T03:31:00.004Z,19.38
2023-01-29T03:34:04.002Z,18.65
2023-01-29T03:36:38.056Z,18.88
2023-01-29T03:39:05.778Z,20.42
2023-01-29T03:41:34.283Z,18.42
2023-01-29T03:44:01.566Z,20.38
2023-01-29T03:46:29.300Z,19.60
2023-01-29T03:48:56.639Z,18.70
2023-01-29T03:51:23.864Z,17.48
2023-01-29T03:53:51.996Z,17.77
2023-01-29T03:56:19.231Z,18.35
2023-01-29T03:58:46.522Z,17.05
2023-01-29T04:01:16.561Z,18.85
2023-01-29T04:03:44.097Z,18.60
2023-01-29T04:06:11.557Z,17.83
2023-01-29T04:08:45.478Z,19.10
2023-01-29T04:11:12.752Z,18.60
2023-01-29T04:13:39.990Z,19.52
2023-01-29T04:16:07.813Z,17.83
2023-01-29T04:18:57.950Z,19.27
2023-01-29T04:21:32.018Z,19.40
2023-01-29T04:23:59.886Z,19.25
2023-01-29T04:26:27.144Z,19.73
2023-01-29T04:28:55.169Z,17.75
2023-01-29T04:31:22.867Z,17.67
2023-01-29T04:33:50.213Z,19.10
2023-01-29T04:36:18.048Z,18.45
2023-01-29T04:38:45.278Z,19.60
2023-01-29T04:41:12.462Z,19.05
2023-01-29T04:43:39.724Z,20.35
2023-01-29T04:46:06.884Z,19.10
2023-01-29T04:48:34.160Z,18.98
2023-01-29T04:51:01.345Z,18.77
2023-01-29T04:53:28.976Z,19.23
2023-01-29T04:55:56.822Z,19.63
2023-01-29T04:58:24.071Z,17.95
2023-01-29T05:00:51.241Z,18.70
2023-01-29T05:03:18.477Z,17.67
2023-01-29T05:05:45.682Z,17.73
2023-01-29T05:08:13.413Z,17.30
2023-01-29T05:10:40.615Z,18.02
2023-01-29T05:13:07.897Z,18.60
2023-01-29T05:15:35.090Z,18.65
2023-01-29T05:18:03.071Z,17.58
2023-01-29T05:20:30.351Z,17.67
2023-01-29T05:22:57.644Z,16.83
2023-01-29T05:25:24.864Z,19.27
2023-01-29T05:28:04.641Z,16.65
2023-01-29T05:30:31.883Z,19.70
2023-01-29T05:32:59.114Z,17.88
2023-01-29T05:35:28.492Z,15.32
2023-01-29T05:37:55.991Z,17.70
2023-01-29T05:40:23.236Z,17.67
2023-01-29T05:42:51.016Z,16.90
2023-01-29T05:45:18.690Z,16.40
2023-01-29T05:47:45.924Z,17.58
2023-01-29T05:50:13.264Z,16.40
2023-01-29T05:52:40.454Z,17.30
2023-01-29T05:55:07.739Z,16.83
2023-01-29T05:57:34.929Z,15.73
2023-01-29T06:00:02.135Z,16.00
2023-01-29T06:02:39.480Z,15.63
2023-01-29T06:05:06.738Z,15.10
2023-01-29T06:07:34.059Z,15.07
2023-01-29T06:10:01.348Z,18.10
2023-01-29T06:12:28.555Z,14.80
2023-01-29T06:14:55.837Z,15.93
2023-01-29T06:17:23.056Z,14.55
2023-01-29T06:19:50.285Z,14.07
2023-01-29T06:22:17.492Z,14.60
2023-01-29T06:24:45.730Z,14.68
2023-01-29T06:27:13.003Z,11.63
2023-01-29T06:29:40.237Z,14.02
2023-01-29T06:32:07.554Z,13.88
2023-01-29T06:34:34.853Z,12.82
2023-01-29T06:37:02.142Z,13.82
2023-01-29T06:39:29.436Z,13.18
2023-01-29T06:41:56.664Z,12.93
2023-01-29T06:44:23.893Z,12.93
2023-01-29T06:46:51.106Z,12.07
2023-01-29T06:49:18.333Z,12.18
2023-01-29T06:51:45.526Z,12.20
2023-01-29T06:54:12.905Z,11.57
2023-01-29T06:56:40.095Z,11.93
2023-01-29T06:59:07.322Z,11.65
2023-01-29T07:01:36.414Z,11.02
2023-01-29T07:04:04.052Z,11.07
2023-01-29T07:06:31.349Z,10.63
2023-01-29T07:08:58.590Z,10.30
2023-01-29T07:11:25.801Z,11.32
2023-01-29T07:13:53.052Z,11.27
2023-01-29T07:16:20.330Z,10.93
2023-01-29T07:18:47.576Z,9.93
2023-01-29T07:21:14.763Z,10.35
2023-01-29T07:23:42.110Z,9.57
2023-01-29T07:26:09.377Z,9.07
2023-01-29T07:28:36.791Z,8.57
2023-01-29T07:31:04.114Z,8.95
2023-01-29T07:33:31.368Z,8.13
2023-01-29T07:35:58.532Z,9.10
2023-01-29T07:38:25.791Z,7.50
2023-01-29T07:40:52.973Z,9.98
2023-01-29T07:43:20.301Z,9.25
2023-01-29T07:45:47.760Z,8.93
2023-01-29T07:48:15.059Z,8.15
2023-01-29T07:50:43.997Z,9.73
2023-01-29T07:53:11.299Z,9.50
2023-01-29T07:55:38.490Z,8.40
2023-01-29T07:58:05.792Z,10.18
2023-01-29T08:00:33.002Z,9.10
2023-01-29T08:03:00.216Z,8.63
2023-01-29T08:05:27.391Z,10.07
2023-01-29T08:08:06.093Z,9.07
2023-01-29T08:10:33.632Z,8.68
2023-01-29T08:13:00.832Z,8.15
2023-01-29T08:15:28.054Z,8.40
2023-01-29T08:20:42.665Z,8.35
2023-01-29T08:23:09.931Z,8.18
2023-01-29T08:25:37.217Z,7.70
2023-01-29T08:28:04.555Z,8.63
2023-01-29T08:30:31.895Z,8.50
2023-01-29T08:32:59.167Z,7.90
2023-01-29T08:35:26.407Z,8.32
2023-01-29T08:37:54.301Z,7.28
2023-01-29T08:40:21.575Z,8.15
2023-01-29T08:42:48.838Z,8.60
2023-01-29T08:45:16.099Z,8.23
2023-01-29T08:47:43.636Z,8.20
2023-01-29T08:50:10.935Z,9.13
2023-01-29T08:52:38.213Z,8.55
2023-01-29T08:55:05.365Z,7.95
2023-01-29T08:57:32.674Z,8.57
2023-01-29T08:59:59.892Z,9.50
2023-01-29T09:02:27.191Z,8.80
2023-01-29T09:04:54.695Z,12.05
2023-01-29T09:07:21.939Z,9.85
2023-01-29T09:09:49.196Z,9.32
2023-01-29T09:12:16.501Z,10.07
2023-01-29T09:14:43.871Z,10.48
2023-01-29T09:17:11.043Z,10.32
2023-01-29T09:19:38.240Z,10.10
2023-01-29T09:22:05.436Z,9.65
2023-01-29T09:24:33.101Z,10.40
2023-01-29T09:27:00.339Z,11.02
2023-01-29T09:29:27.607Z,11.15
2023-01-29T09:31:54.890Z,10.40
2023-01-29T09:34:22.235Z,9.55
2023-01-29T09:36:49.427Z,11.40
2023-01-29T09:39:16.805Z,10.10
2023-01-29T09:41:44.019Z,10.30
2023-01-29T09:44:11.327Z,8.98
2023-01-29T09:46:38.557Z,9.73
2023-01-29T09:49:05.788Z,10.73
2023-01-29T09:51:32.977Z,10.43
2023-01-29T09:54:00.234Z,8.02
2023-01-29T09:56:29.083Z,8.55
2023-01-29T09:58:56.429Z,9.13
2023-01-29T10:01:23.762Z,8.10
2023-01-29T10:03:52.057Z,9.88
2023-01-29T10:06:19.238Z,9.35
2023-01-29T10:08:46.651Z,8.80
2023-01-29T10:11:13.960Z,7.65
2023-01-29T10:13:41.252Z,8.32
2023-01-29T10:16:08.471Z,8.55
2023-01-29T10:18:35.720Z,8.63
2023-01-29T10:21:04.510Z,8.65
2023-01-29T10:23:34.174Z,9.45
2023-01-29T10:26:02.002Z,8.07
2023-01-29T10:28:29.253Z,7.15
2023-01-29T10:30:56.604Z,8.43
2023-01-29T10:33:23.954Z,8.52
2023-01-29T10:35:53.801Z,7.97
2023-01-29T10:38:22.636Z,8.65
2023-01-29T10:40:49.796Z,8.98
2023-01-29T10:43:17.091Z,9.18
2023-01-29T10:45:44.301Z,9.18
2023-01-29T10:48:11.732Z,9.20
2023-01-29T10:50:38.899Z,10.45
2023-01-29T10:53:06.337Z,9.18
2023-01-29T10:55:33.625Z,9.45
2023-01-29T10:58:02.864Z,9.82
2023-01-29T11:00:30.538Z,9.68
2023-01-29T11:02:58.428Z,8.93
2023-01-29T11:05:25.714Z,9.60
2023-01-29T11:07:52.888Z,8.48
2023-01-29T11:10:20.376Z,10.18
2023-01-29T11:12:47.599Z,9.32
2023-01-29T11:15:14.868Z,9.07
2023-01-29T11:17:42.819Z,9.85
2023-01-29T11:20:10.240Z,10.43
2023-01-29T11:22:37.564Z,8.95
2023-01-29T11:25:04.883Z,8.73
2023-01-29T11:27:32.073Z,9.70
2023-01-29T11:29:59.347Z,10.98
2023-01-29T11:32:26.605Z,9.20
2023-01-29T11:34:53.952Z,9.15
2023-01-29T11:37:21.142Z,10.73
2023-01-29T11:39:48.465Z,9.50
2023-01-29T11:42:15.703Z,9.18
2023-01-29T11:44:42.951Z,9.07
2023-01-29T11:47:10.132Z,10.65
2023-01-29T11:49:37.444Z,10.52
2023-01-29T11:52:04.789Z,8.15
2023-01-29T11:54:32.085Z,8.55
2023-01-29T11:56:59.347Z,7.40
2023-01-29T11:59:26.604Z,9.20
2023-01-29T12:01:53.935Z,8.18
2023-01-29T12:04:21.239Z,8.05
2023-01-29T12:06:50.610Z,8.20
2023-01-29T12:09:18.004Z,8.07
2023-01-29T12:11:45.248Z,6.82
2023-01-29T12:14:12.522Z,8.10
2023-01-29T12:16:39.767Z,8.23
2023-01-29T12:19:07.020Z,8.20
2023-01-29T12:21:34.211Z,8.27
2023-01-29T12:24:01.481Z,8.00
2023-01-29T12:26:28.730Z,7.13
2023-01-29T12:28:56.008Z,7.28
2023-01-29T12:31:23.303Z,6.97
2023-01-29T12:33:50.570Z,7.38
2023-01-29T12:36:17.826Z,7.38
2023-01-29T12:38:45.002Z,7.15
2023-01-29T12:41:12.287Z,6.57
2023-01-29T12:43:39.486Z,7.95
2023-01-29T12:46:06.740Z,5.80
2023-01-29T12:48:34.161Z,5.90
2023-01-29T12:51:01.401Z,5.63
2023-01-29T12:53:28.699Z,6.80
2023-01-29T12:55:56.153Z,6.50
2023-01-29T12:58:23.493Z,5.72
2023-01-29T13:00:50.844Z,5.30
2023-01-29T13:03:18.970Z,4.95
2023-01-29T13:05:46.407Z,4.50
2023-01-29T13:08:13.809Z,5.38
2023-01-29T13:10:41.116Z,4.78
2023-01-29T13:13:08.390Z,5.18
2023-01-29T13:15:36.203Z,5.72
2023-01-29T13:18:03.443Z,5.53
2023-01-29T13:20:30.724Z,5.72
2023-01-29T13:22:58.072Z,4.82
2023-01-29T13:25:25.282Z,4.90
2023-01-29T13:27:52.573Z,4.47
2023-01-29T13:30:19.782Z,4.88
2023-01-29T13:32:47.387Z,4.28
2023-01-29T13:35:14.812Z,5.35
2023-01-29T13:37:42.307Z,5.03
2023-01-29T13:40:09.536Z,4.13
2023-01-29T13:42:36.830Z,4.05
2023-01-29T13:45:04.290Z,4.00
2023-01-29T13:47:31.484Z,4.55
2023-01-29T13:49:58.821Z,4.53
2023-01-29T13:52:26.119Z,3.47
2023-01-29T13:54:53.455Z,3.20
2023-01-29T13:57:20.729Z,3.50
2023-01-29T13:59:47.954Z,3.80
2023-01-29T14:02:15.240Z,2.97
2023-01-29T14:04:42.509Z,2.70
2023-01-29T14:07:09.753Z,2.92
2023-01-29T14:09:37.115Z,2.25
2023-01-29T14:12:04.459Z,2.65
2023-01-29T14:14:32.096Z,1.58
2023-01-29T14:16:59.490Z,2.30
2023-01-29T14:19:26.879Z,2.75
2023-01-29T14:21:54.129Z,1.83
2023-01-29T14:24:21.439Z,2.25
2023-01-29T14:26:48.804Z,1.63
2023-01-29T14:29:18.763Z,2.38
2023-01-29T14:31:48.871Z,2.25
2023-01-29T14:34:16.163Z,2.28
2023-01-29T14:36:43.511Z,1.85
2023-01-29T14:39:10.751Z,1.95
2023-01-29T14:41:38.062Z,2.08
2023-01-29T14:44:05.262Z,2.42
2023-01-29T14:46:32.630Z,2.28
2023-01-29T14:48:59.864Z,2.55
2023-01-29T14:51:27.143Z,2.20
2023-01-29T14:53:54.437Z,2.20
2023-01-29T14:56:22.038Z,2.25
2023-01-29T14:58:49.305Z,2.20
2023-01-29T15:01:16.723Z,2.08
2023-01-29T15:03:43.929Z,2.00
2023-01-29T15:06:11.152Z,2.50
2023-01-29T15:08:38.404Z,1.80
2023-01-29T15:11:24.476Z,1.90
2023-01-29T15:13:51.812Z,2.22
2023-01-29T15:16:19.090Z,2.05
2023-01-29T15:18:46.350Z,2.10
2023-01-29T15:21:13.722Z,2.53
2023-01-29T15:23:41.000Z,2.33
2023-01-29T15:26:09.320Z,2.13
2023-01-29T15:28:36.678Z,1.80
2023-01-29T15:31:08.034Z,2.28
2023-01-29T15:33:35.374Z,2.85
2023-01-29T15:36:07.415Z,2.53
2023-01-29T15:38:35.274Z,3.28
2023-01-29T15:41:02.505Z,2.80
2023-01-29T15:43:30.045Z,2.47
2023-01-29T15:45:57.326Z,2.72
2023-01-29T15:48:24.569Z,2.60
2023-01-29T15:50:51.727Z,2.60
2023-01-29T15:53:18.961Z,2.95
2023-01-29T15:55:46.188Z,2.72
2023-01-29T15:58:13.437Z,2.67
2023-01-29T16:00:40.680Z,3.85
2023-01-29T16:03:07.989Z,2.55
2023-01-29T16:05:35.256Z,2.55
2023-01-29T16:08:02.621Z,2.05
2023-01-29T16:10:29.804Z,2.35
2023-01-29T16:12:57.081Z,2.05
2023-01-29T16:15:24.286Z,3.47
2023-01-29T16:17:52.014Z,3.10
2023-01-29T16:20:19.735Z,2.78
2023-01-29T16:22:46.989Z,2.30
2023-01-29T16:25:14.231Z,3.55
2023-01-29T16:27:44.696Z,3.10
2023-01-29T16:30:11.983Z,2.38
2023-01-29T16:32:39.253Z,2.20
2023-01-29T16:35:06.665Z,1.92
2023-01-29T16:37:33.944Z,1.92
2023-01-29T16:40:01.236Z,1.90
2023-01-29T16:42:28.479Z,2.08
2023-01-29T16:44:55.758Z,1.40
2023-01-29T16:47:23.815Z,1.55
2023-01-29T16:49:51.157Z,1.80
2023-01-29T16:52:18.424Z,1.50
2023-01-29T16:54:45.748Z,1.80
2023-01-29T16:57:12.954Z,2.08
2023-01-29T16:59:40.203Z,1.85
2023-01-29T17:02:07.367Z,1.83
2023-01-29T17:04:34.562Z,1.63
2023-01-29T17:07:01.820Z,1.50
2023-01-29T17:09:29.079Z,1.30
2023-01-29T17:11:56.323Z,1.35
2023-01-29T17:14:23.560Z,1.30
2023-01-29T17:16:50.826Z,1.58
2023-01-29T17:19:18.520Z,1.70
2023-01-29T17:21:47.068Z,1.75
2023-01-29T17:24:14.319Z,1.50
2023-01-29T17:26:41.687Z,1.60
2023-01-29T17:29:09.736Z,1.52
2023-01-29T17:31:38.088Z,2.15
2023-01-29T17:34:05.406Z,2.00
2023-01-29T17:36:32.690Z,2.05
2023-01-29T17:39:01.253Z,1.92
2023-01-29T17:41:28.587Z,1.90
2023-01-29T17:43:55.813Z,1.77
2023-01-29T17:46:22.985Z,2.15
2023-01-29T17:48:50.421Z,1.75
2023-01-29T17:51:17.819Z,2.40
2023-01-29T17:53:46.668Z,2.05
2023-01-29T17:56:14.527Z,1.73
2023-01-29T17:58:42.192Z,2.60
2023-01-29T18:01:09.612Z,2.30
2023-01-29T18:03:36.905Z,2.42
2023-01-29T18:06:04.192Z,1.90
2023-01-29T18:08:31.573Z,1.70
2023-01-29T18:10:58.800Z,1.20
2023-01-29T18:13:26.114Z,0.88
2023-01-29T18:15:53.283Z,1.27
2023-01-29T18:18:20.629Z,1.30
2023-01-29T18:20:49.128Z,0.82
2023-01-29T18:23:16.390Z,1.15
2023-01-29T18:25:44.136Z,1.60
2023-01-29T18:28:11.398Z,1.20
2023-01-29T18:30:38.674Z,2.50
2023-01-29T18:33:06.089Z,1.70
2023-01-29T18:35:33.320Z,1.48
2023-01-29T18:38:00.679Z,1.30
2023-01-29T18:40:27.923Z,1.15
2023-01-29T18:42:55.399Z,1.42
2023-01-29T18:45:22.604Z,1.30
2023-01-29T18:47:49.829Z,1.42
2023-01-29T18:50:17.064Z,1.38
2023-01-29T18:52:44.366Z,1.02
2023-01-29T18:55:11.604Z,1.00
2023-01-29T18:58:28.202Z,1.20
2023-01-29T19:00:28.054Z,1.23
2023-01-29T19:02:55.331Z,1.42
2023-01-29T19:05:24.555Z,1.08
2023-01-29T19:07:55.103Z,1.40
2023-01-29T19:10:22.710Z,1.98
2023-01-29T19:12:49.930Z,1.65
2023-01-29T19:15:20.590Z,2.00
2023-01-29T19:17:47.897Z,1.83
2023-01-29T19:20:15.626Z,2.00
2023-01-29T19:22:42.978Z,1.67
2023-01-29T19:25:10.203Z,1.50
2023-01-29T19:27:37.441Z,2.15
2023-01-29T19:30:05.813Z,1.30
2023-01-29T19:32:33.252Z,1.65
2023-01-29T19:35:00.666Z,1.67
2023-01-29T19:37:27.938Z,1.92
2023-01-29T19:39:55.160Z,1.80
2023-01-29T19:42:22.419Z,2.10
2023-01-29T19:44:51.157Z,2.33
2023-01-29T19:47:18.469Z,2.15
2023-01-29T19:49:45.882Z,2.75
2023-01-29T19:52:49.882Z,2.45
2023-01-29T19:55:18.265Z,1.95
2023-01-29T19:57:45.919Z,2.17
2023-01-29T20:00:14.892Z,2.10
2023-01-29T20:02:42.376Z,2.28
2023-01-29T20:05:12.151Z,2.60
2023-01-29T20:07:40.005Z,2.22
2023-01-29T20:10:07.354Z,2.40
2023-01-29T20:12:34.926Z,2.28
2023-01-29T20:15:02.131Z,2.05
2023-01-29T20:17:29.381Z,2.78
2023-01-29T20:19:56.721Z,2.50
2023-01-29T20:22:24.012Z,2.67
2023-01-29T20:24:51.218Z,2.85
2023-01-29T20:27:18.660Z,2.70
2023-01-29T20:29:46.669Z,2.65
2023-01-29T20:32:14.602Z,2.85
2023-01-29T20:34:41.885Z,2.55
2023-01-29T20:37:09.147Z,2.95
2023-01-29T20:39:36.359Z,2.50
2023-01-29T20:42:03.685Z,2.63
2023-01-29T20:44:30.875Z,2.60
2023-01-29T20:47:01.717Z,2.47
2023-01-29T20:49:29.358Z,2.22
2023-01-29T20:51:56.690Z,2.40
2023-01-29T20:54:23.992Z,2.45
2023-01-29T20:56:51.309Z,2.70
2023-01-29T20:59:19.037Z,2.30
2023-01-29T21:01:46.498Z,2.90
2023-01-29T21:04:13.866Z,2.95
2023-01-29T21:06:41.047Z,2.10
2023-01-29T21:09:08.396Z,2.65
2023-01-29T21:11:35.684Z,2.30
2023-01-29T21:14:03.046Z,2.58
2023-01-29T21:16:30.378Z,2.10
2023-01-29T21:18:57.773Z,2.40
2023-01-29T21:21:26.570Z,2.22
2023-01-29T21:23:53.991Z,2.20
2023-01-29T21:26:21.333Z,2.40
2023-01-29T21:28:48.623Z,2.88
2023-01-29T21:31:16.917Z,2.85
2023-01-29T21:33:44.465Z,3.20
2023-01-29T21:36:11.696Z,3.08
2023-01-29T21:38:38.984Z,3.60
2023-01-29T21:41:06.390Z,3.15
2023-01-29T21:43:33.621Z,2.80
2023-01-29T21:46:00.912Z,3.30
2023-01-29T21:48:28.250Z,3.10
2023-01-29T21:50:55.440Z,3.28
2023-01-29T21:53:22.753Z,3.05
2023-01-29T21:55:50.058Z,3.25
2023-01-29T21:58:17.375Z,2.60
2023-01-29T22:00:48.796Z,2.95
2023-01-29T22:03:16.737Z,3.47
2023-01-29T22:05:43.949Z,3.25
2023-01-29T22:08:11.196Z,3.70
2023-01-29T22:10:39.066Z,4.10
2023-01-29T22:13:06.428Z,3.58
2023-01-29T22:15:33.712Z,3.63
2023-01-29T22:18:00.995Z,3.83
2023-01-29T22:20:30.790Z,3.88
2023-01-29T22:22:58.708Z,3.15
2023-01-29T22:25:25.979Z,3.60
2023-01-29T22:27:53.234Z,3.55
2023-01-29T22:30:20.961Z,3.03
2023-01-29T22:32:48.231Z,3.42
2023-01-29T22:35:15.473Z,3.28
2023-01-29T22:37:42.664Z,3.40
2023-01-29T22:40:09.900Z,3.60
2023-01-29T22:42:37.069Z,3.40
2023-01-29T22:45:04.289Z,3.03
2023-01-29T22:47:31.801Z,2.78
2023-01-29T22:49:59.080Z,3.35
2023-01-29T22:52:27.998Z,3.47
2023-01-29T22:54:55.521Z,2.90
2023-01-29T22:57:22.819Z,2.80
2023-01-29T22:59:49.998Z,2.90
2023-01-29T23:02:17.440Z,3.50
2023-01-29T23:04:44.736Z,3.45
2023-01-29T23:07:12.041Z,2.92
2023-01-29T23:09:39.318Z,4.05
2023-01-29T23:12:06.935Z,3.65
2023-01-29T23:14:34.196Z,4.47
2023-01-29T23:17:01.505Z,3.90
2023-01-29T23:19:30.078Z,4.70
2023-01-29T23:21:57.365Z,3.85
2023-01-29T23:24:24.728Z,4.95
2023-01-29T23:27:10.864Z,4.55
2023-01-29T23:29:38.150Z,4.85
2023-01-29T23:32:05.421Z,4.63
2023-01-29T23:34:32.701Z,4.22
2023-01-29T23:36:59.948Z,4.80
2023-01-29T23:39:27.202Z,4.10
2023-01-29T23:41:54.407Z,3.67
2023-01-29T23:44:21.732Z,4.15
2023-01-29T23:46:49.034Z,4.13
2023-01-29T23:49:16.339Z,4.03
2023-01-29T23:51:44.510Z,4.38
2023-01-29T23:54:11.771Z,4.10
2023-01-29T23:56:38.959Z,4.30
2023-01-29T23:59:06.252Z,3.67
